Time;durP1;ratioP1;P1;durP2;ratioP2;P2;SDS_P1;SDS_P2;PMS_P1;PMS_P2;Temp;Humidity;BMP_temperature;BMP_pressure;BME280_temperature;BME280_humidity;BME280_pressure;Samples;Min_cycle;Max_cycle;Signal;HPM_P1;HPM_P2
2022/08/06 00:02:27;;;;;;;6.32;5.85;;;;;;;21.66;54.96;94735.59;5097705;28;20218;-71
2022/08/06 00:04:57;;;;;;;6.72;6.22;;;;;;;21.65;54.80;94731.22;5097194;28;20191;-71
2022/08/06 00:07:27;;;;;;;6.55;5.97;;;;;;;21.62;54.98;94729.28;5097897;28;20200;-71
2022/08/06 00:09:56;;;;;;;6.97;6.35;;;;;;;21.60;55.10;94729.69;5097597;28;20223;-71
2022/08/06 00:12:24;;;;;;;6.70;6.00;;;;;;;21.60;54.99;94732.50;5097967;28;20219;-71
2022/08/06 00:14:52;;;;;;;6.85;6.18;;;;;;;21.57;55.29;94724.97;5097036;28;20196;-71
2022/08/06 00:17:21;;;;;;;6.63;6.03;;;;;;;21.54;54.70;94734.25;5096847;28;20192;-71
2022/08/06 00:19:50;;;;;;;6.80;6.30;;;;;;;21.48;55.25;94740.78;5097313;28;20198;-71
2022/08/06 00:22:20;;;;;;;6.90;6.30;;;;;;;21.42;54.80;94736.88;5096903;28;20203;-71
2022/08/06 00:24:47;;;;;;;6.60;5.90;;;;;;;21.36;55.38;94740.22;5097780;28;20211;-71
2022/08/06 00:27:15;;;;;;;7.15;6.45;;;;;;;21.35;55.89;94740.63;5097552;28;20256;-71
2022/08/06 00:29:43;;;;;;;6.03;5.50;;;;;;;21.30;55.47;94741.91;5097254;28;20193;-71
2022/08/06 00:32:09;;;;;;;6.43;5.93;;;;;;;21.27;55.60;94742.75;5097462;28;20208;-71
2022/08/06 00:34:36;;;;;;;6.25;5.75;;;;;;;21.25;55.72;94745.22;5097584;28;20189;-71
2022/08/06 00:37:05;;;;;;;6.18;5.57;;;;;;;21.22;55.64;94745.28;5097372;28;20184;-71
2022/08/06 00:39:35;;;;;;;6.30;5.80;;;;;;;21.23;55.93;94752.47;5097036;28;20199;-71
2022/08/06 00:42:01;;;;;;;6.57;5.72;;;;;;;21.23;56.13;94746.84;5097274;28;20189;-71
2022/08/06 00:44:28;;;;;;;6.30;5.88;;;;;;;21.20;56.19;94756.13;5096435;28;20200;-71
2022/08/06 00:46:56;;;;;;;6.32;5.78;;;;;;;21.18;56.20;94741.75;5097207;28;20223;-71
2022/08/06 00:49:24;;;;;;;5.95;5.50;;;;;;;21.14;56.26;94747.44;5097174;28;20199;-71
2022/08/06 00:51:50;;;;;;;6.45;5.85;;;;;;;21.12;56.04;94739.44;5097083;28;20184;-71
2022/08/06 00:54:19;;;;;;;6.68;6.13;;;;;;;21.12;55.85;94747.06;5096994;28;20192;-71
2022/08/06 00:56:47;;;;;;;6.15;5.75;;;;;;;21.10;56.21;94746.69;5096029;28;20247;-71
2022/08/06 00:59:15;;;;;;;5.90;5.40;;;;;;;21.08;56.16;94749.91;5096931;28;20224;-71
2022/08/06 01:01:42;;;;;;;6.78;6.07;;;;;;;21.06;56.23;94749.56;5096797;28;20185;-71
2022/08/06 01:04:10;;;;;;;6.38;5.82;;;;;;;21.04;56.49;94748.41;5096718;28;20521;-71
2022/08/06 01:06:37;;;;;;;6.47;5.97;;;;;;;21.04;55.87;94754.00;5096531;28;20223;-71
2022/08/06 01:09:05;;;;;;;6.60;6.00;;;;;;;20.99;56.56;94746.91;5096401;28;20635;-70
2022/08/06 01:11:33;;;;;;;6.32;5.72;;;;;;;20.98;56.63;94745.28;5095676;28;20196;-71
2022/08/06 01:14:02;;;;;;;6.47;5.70;;;;;;;20.98;56.67;94745.28;5096783;28;20203;-71
2022/08/06 01:16:36;;;;;;;6.72;6.22;;;;;;;20.99;56.46;94746.09;5096546;28;20193;-71
2022/08/06 01:19:26;;;;;;;6.45;5.82;;;;;;;20.97;57.01;94745.75;5096744;28;20249;-71
2022/08/06 01:22:05;;;;;;;7.57;6.75;;;;;;;20.97;56.76;94735.31;5095627;28;20563;-71
2022/08/06 01:25:07;;;;;;;6.25;5.75;;;;;;;20.99;56.49;94741.28;5096069;28;20552;-71
2022/08/06 01:27:47;;;;;;;6.90;6.35;;;;;;;20.99;56.21;94746.09;5092682;28;20255;-71
2022/08/06 01:30:17;;;;;;;6.65;6.05;;;;;;;20.94;56.70;94736.16;5096231;28;20187;-71
2022/08/06 01:32:50;;;;;;;6.60;6.10;;;;;;;20.88;57.00;94744.28;5095636;28;20203;-71
2022/08/06 01:35:20;;;;;;;6.20;5.65;;;;;;;20.84;57.16;94739.94;5096219;28;20188;-71
2022/08/06 01:37:54;;;;;;;7.25;6.55;;;;;;;20.77;57.12;94738.09;5095895;28;20176;-71
2022/08/06 01:40:27;;;;;;;7.93;7.22;;;;;;;20.75;56.89;94737.69;5095857;28;20185;-71
2022/08/06 01:42:56;;;;;;;7.93;6.68;;;;;;;20.73;57.48;94742.13;5096126;28;20184;-71
2022/08/06 01:45:26;;;;;;;7.22;6.63;;;;;;;20.71;57.31;94739.78;5094921;28;20215;-71
2022/08/06 01:47:58;;;;;;;6.90;6.20;;;;;;;20.69;57.34;94736.59;5096045;28;20685;-71
2022/08/06 01:50:29;;;;;;;7.15;6.50;;;;;;;20.64;57.93;94735.09;5095273;28;20193;-71
2022/08/06 01:52:57;;;;;;;7.10;6.45;;;;;;;20.62;57.89;94734.69;5096087;28;20200;-71
2022/08/06 01:55:25;;;;;;;6.93;6.22;;;;;;;20.60;57.90;94739.97;5094604;28;20242;-71
2022/08/06 01:57:56;;;;;;;8.40;6.40;;;;;;;20.56;57.82;94739.22;5094689;28;20520;-71
2022/08/06 02:00:25;;;;;;;6.80;6.20;;;;;;;20.47;58.05;94736.13;5095797;28;20173;-71
2022/08/06 02:02:53;;;;;;;7.57;6.57;;;;;;;20.46;58.10;94734.56;5095561;28;20596;-71
2022/08/06 02:05:20;;;;;;;8.25;6.20;;;;;;;20.47;58.10;94738.16;5095810;28;20193;-71
2022/08/06 02:07:51;;;;;;;8.07;6.55;;;;;;;20.44;58.40;94732.19;5095549;28;20223;-71
2022/08/06 02:10:22;;;;;;;7.10;6.47;;;;;;;20.44;58.59;94723.78;5095214;28;20203;-71
2022/08/06 02:12:51;;;;;;;8.00;6.47;;;;;;;20.40;58.16;94720.22;5095059;28;20204;-71
2022/08/06 02:15:26;;;;;;;7.32;6.60;;;;;;;20.41;58.44;94715.44;5094859;28;20200;-71
2022/08/06 02:17:57;;;;;;;7.82;6.88;;;;;;;20.38;57.90;94725.47;5094763;28;20192;-71
2022/08/06 02:20:29;;;;;;;7.05;6.55;;;;;;;20.35;58.27;94720.72;5094800;28;20208;-71
2022/08/06 02:22:57;;;;;;;7.28;6.63;;;;;;;20.32;58.70;94713.16;5095344;28;20196;-71
2022/08/06 02:25:25;;;;;;;7.13;6.45;;;;;;;20.27;58.55;94710.88;5095445;28;20199;-71
2022/08/06 02:27:54;;;;;;;6.95;6.32;;;;;;;20.24;58.39;94710.91;5094392;28;20215;-71
2022/08/06 02:30:24;;;;;;;6.78;6.28;;;;;;;20.20;58.35;94717.34;5095096;28;20189;-71
2022/08/06 02:32:53;;;;;;;7.80;6.78;;;;;;;20.16;58.58;94715.84;5095458;28;20260;-71
2022/08/06 02:35:21;;;;;;;6.90;6.30;;;;;;;20.15;58.06;94717.03;5094579;28;20200;-71
2022/08/06 02:37:58;;;;;;;6.88;6.38;;;;;;;20.17;58.50;94714.63;5095301;28;20187;-71
2022/08/06 02:40:31;;;;;;;7.63;6.93;;;;;;;20.20;58.46;94713.78;5094908;28;20224;-71
2022/08/06 02:43:03;;;;;;;8.10;6.20;;;;;;;20.21;58.40;94712.53;5094399;28;20304;-71
2022/08/06 02:45:39;;;;;;;7.07;6.47;;;;;;;20.23;57.94;94712.94;5094573;28;20196;-71
2022/08/06 02:48:14;;;;;;;7.47;6.60;;;;;;;20.22;58.01;94710.53;5095346;28;20200;-71
2022/08/06 02:50:44;;;;;;;7.13;6.47;;;;;;;20.19;58.47;94717.78;5095698;28;20245;-71
2022/08/06 02:53:19;;;;;;;7.38;6.72;;;;;;;20.13;58.03;94714.66;5095529;28;20195;-71
2022/08/06 02:55:48;;;;;;;7.47;6.63;;;;;;;20.10;58.41;94712.72;5093817;28;20242;-71
2022/08/06 02:58:20;;;;;;;8.80;6.63;;;;;;;20.08;58.00;94714.34;5094894;28;20176;-71
2022/08/06 03:00:50;;;;;;;8.63;6.20;;;;;;;20.02;58.08;94719.63;5095164;28;20207;-71
2022/08/06 03:03:17;;;;;;;7.05;6.35;;;;;;;19.99;58.16;94730.88;5095082;28;20200;-71
2022/08/06 03:05:46;;;;;;;7.30;6.28;;;;;;;19.96;58.56;94724.13;5093701;28;20196;-71
2022/08/06 03:08:16;;;;;;;7.55;6.75;;;;;;;19.91;58.61;94727.41;5093930;28;20216;-71
2022/08/06 03:10:44;;;;;;;7.60;6.90;;;;;;;19.86;58.69;94730.66;5095088;28;20188;-71
2022/08/06 03:13:12;;;;;;;7.40;6.68;;;;;;;19.83;58.58;94723.13;5094368;28;20188;-71
2022/08/06 03:15:41;;;;;;;7.03;6.05;;;;;;;19.82;58.12;94738.31;5094955;28;20197;-71
2022/08/06 03:18:13;;;;;;;6.60;6.00;;;;;;;19.78;58.43;94727.16;5094131;28;20188;-71
2022/08/06 03:20:42;;;;;;;6.78;6.18;;;;;;;19.73;58.28;94733.25;5097439;28;20596;-70
2022/08/06 03:23:09;;;;;;;6.75;6.00;;;;;;;19.68;58.18;94730.91;5098865;28;20200;-71
2022/08/06 03:25:37;;;;;;;6.63;6.13;;;;;;;19.70;58.57;94737.66;5097515;28;20604;-70
2022/08/06 03:28:07;;;;;;;7.13;6.57;;;;;;;19.69;58.52;94738.88;5098643;28;20220;-70
2022/08/06 03:30:34;;;;;;;6.35;5.82;;;;;;;19.66;59.08;94739.72;5098418;28;20184;-71
2022/08/06 03:33:05;;;;;;;7.07;6.32;;;;;;;19.62;58.89;94733.38;5098521;28;20177;-71
2022/08/06 03:35:40;;;;;;;7.05;6.07;;;;;;;19.65;58.98;94728.97;5097898;28;20196;-71
2022/08/06 03:38:11;;;;;;;7.43;6.70;;;;;;;19.67;58.77;94723.72;5098095;28;20195;-71
2022/08/06 03:40:43;;;;;;;6.65;6.05;;;;;;;19.69;58.96;94727.69;5098192;28;20200;-71
2022/08/06 03:43:13;;;;;;;7.45;6.72;;;;;;;19.66;58.91;94736.91;5097759;28;20223;-71
2022/08/06 03:45:43;;;;;;;6.97;6.28;;;;;;;19.60;59.15;94741.34;5097500;28;20200;-70
2022/08/06 03:48:14;;;;;;;7.05;6.32;;;;;;;19.63;59.52;94734.97;5098168;28;20208;-70
2022/08/06 03:50:47;;;;;;;6.90;6.30;;;;;;;19.64;59.25;94741.34;5098559;28;20194;-70
2022/08/06 03:53:20;;;;;;;6.63;6.07;;;;;;;19.66;59.43;94730.53;5097566;28;20197;-70
2022/08/06 03:55:50;;;;;;;6.82;6.22;;;;;;;19.67;59.16;94743.31;5098000;28;20240;-71
2022/08/06 03:58:19;;;;;;;7.30;6.68;;;;;;;19.63;59.35;94742.56;5097830;28;20197;-71
2022/08/06 04:00:51;;;;;;;6.53;5.93;;;;;;;19.63;59.65;94746.16;5096875;28;20201;-71
2022/08/06 04:03:19;;;;;;;7.35;6.65;;;;;;;19.63;59.73;94743.34;5098076;28;20195;-71
2022/08/06 04:05:50;;;;;;;7.22;6.53;;;;;;;19.67;59.51;94746.91;5098652;28;20176;-71
2022/08/06 04:08:17;;;;;;;6.80;6.20;;;;;;;19.76;58.38;94745.59;5097180;28;20204;-71
2022/08/06 04:10:48;;;;;;;6.72;6.07;;;;;;;19.87;58.09;94749.84;5097028;28;20534;-70
2022/08/06 04:13:23;;;;;;;6.40;5.90;;;;;;;19.91;57.58;94755.38;5097306;28;20212;-71
2022/08/06 04:15:50;;;;;;;6.68;5.90;;;;;;;19.98;58.59;94749.69;5097790;28;20200;-71
2022/08/06 04:18:19;;;;;;;6.97;6.30;;;;;;;19.98;59.49;94760.88;5096700;28;20208;-70
2022/08/06 04:20:50;;;;;;;7.35;6.65;;;;;;;19.97;59.46;94756.47;5097741;28;20185;-71
2022/08/06 04:23:19;;;;;;;8.90;7.32;;;;;;;19.96;59.61;94758.50;5097825;28;20204;-71
2022/08/06 04:25:49;;;;;;;10.90;7.20;;;;;;;19.98;59.77;94755.28;5097516;28;20184;-71
2022/08/06 04:28:18;;;;;;;8.55;7.45;;;;;;;19.98;59.27;94760.88;5096834;28;20216;-71
2022/08/06 04:30:47;;;;;;;8.25;7.22;;;;;;;20.02;60.22;94758.81;5095530;28;20196;-71
2022/08/06 04:33:19;;;;;;;7.97;7.18;;;;;;;20.03;59.72;94766.00;5097481;28;20188;-71
2022/08/06 04:35:49;;;;;;;7.85;7.13;;;;;;;20.07;59.86;94769.53;5097432;28;20189;-71
2022/08/06 04:38:19;;;;;;;8.30;7.47;;;;;;;20.11;59.89;94770.28;5097373;28;20181;-71
2022/08/06 04:40:47;;;;;;;7.47;6.22;;;;;;;20.16;59.66;94769.03;5096466;28;20209;-71
2022/08/06 04:43:16;;;;;;;7.43;6.72;;;;;;;20.19;60.04;94768.97;5096109;28;20204;-71
2022/08/06 04:45:44;;;;;;;7.40;6.68;;;;;;;20.20;59.43;94778.97;5096252;28;20207;-71
2022/08/06 04:48:13;;;;;;;7.32;6.05;;;;;;;20.24;59.22;94780.91;5096243;28;20227;-70
2022/08/06 04:50:41;;;;;;;7.28;6.57;;;;;;;20.29;59.16;94774.84;5097256;28;20184;-71
2022/08/06 04:53:12;;;;;;;7.50;6.32;;;;;;;20.34;58.25;94775.16;5097077;28;20184;-71
2022/08/06 04:55:40;;;;;;;7.60;6.90;;;;;;;20.37;57.75;94771.53;5096564;28;20232;-71
2022/08/06 04:58:10;;;;;;;7.50;6.88;;;;;;;20.42;57.89;94779.44;5095871;28;20211;-70
2022/08/06 05:00:40;;;;;;;6.95;6.28;;;;;;;20.47;58.02;94782.97;5096468;28;20197;-70
2022/08/06 05:03:08;;;;;;;7.18;6.45;;;;;;;20.45;57.71;94780.59;5095794;28;20640;-71
2022/08/06 05:05:42;;;;;;;7.00;6.40;;;;;;;20.46;57.81;94784.19;5097015;28;20549;-71
2022/08/06 05:08:13;;;;;;;7.78;7.18;;;;;;;20.46;57.71;94784.19;5096024;28;20239;-71
2022/08/06 05:10:48;;;;;;;7.15;6.57;;;;;;;20.47;57.21;94785.75;5095944;28;20197;-71
2022/08/06 05:13:19;;;;;;;7.20;6.60;;;;;;;20.47;56.56;94786.56;5095812;28;20207;-71
2022/08/06 05:15:52;;;;;;;6.30;5.80;;;;;;;20.52;56.35;94788.94;5096347;28;20180;-71
2022/08/06 05:18:25;;;;;;;7.40;6.78;;;;;;;20.57;56.42;94784.84;5095440;28;20608;-71
2022/08/06 05:20:54;;;;;;;7.38;6.68;;;;;;;20.61;56.33;94780.75;5095958;28;20228;-71
2022/08/06 05:23:32;;;;;;;7.30;6.68;;;;;;;20.64;56.38;94777.09;5095916;28;20212;-71
2022/08/06 05:26:01;;;;;;;6.93;6.43;;;;;;;20.72;56.86;94783.38;5096326;28;20196;-70
2022/08/06 05:28:30;;;;;;;7.55;6.93;;;;;;;20.78;56.89;94783.72;5096689;28;20216;-70
2022/08/06 05:30:57;;;;;;;7.20;6.50;;;;;;;20.82;56.61;94784.44;5096039;28;20184;-70
2022/08/06 05:33:26;;;;;;;7.53;6.82;;;;;;;20.85;56.46;94786.38;5095649;28;20200;-71
2022/08/06 05:35:53;;;;;;;7.82;7.20;;;;;;;20.91;56.25;94784.66;5095987;28;20188;-71
2022/08/06 05:38:23;;;;;;;7.80;7.05;;;;;;;20.91;55.43;94784.66;5096550;28;20185;-70
2022/08/06 05:40:51;;;;;;;7.75;7.13;;;;;;;20.95;56.18;94785.38;5095311;28;20286;-71
2022/08/06 05:43:17;;;;;;;7.50;6.90;;;;;;;20.97;56.10;94782.19;5095927;28;20188;-71
2022/08/06 05:45:46;;;;;;;7.18;6.47;;;;;;;21.00;55.45;94778.53;5095033;28;20192;-70
2022/08/06 05:48:19;;;;;;;6.85;6.35;;;;;;;21.03;55.35;94786.09;5095074;28;20286;-71
2022/08/06 05:50:51;;;;;;;7.90;7.13;;;;;;;21.08;55.31;94789.19;5095756;28;20192;-70
2022/08/06 05:53:26;;;;;;;7.30;6.70;;;;;;;21.11;54.85;94788.31;5096222;28;20199;-71
2022/08/06 05:55:56;;;;;;;6.65;6.05;;;;;;;21.12;55.19;94783.50;5094718;28;20251;-71
2022/08/06 05:58:29;;;;;;;7.18;6.47;;;;;;;21.17;54.95;94777.41;5095644;28;20605;-71
2022/08/06 06:00:59;;;;;;;7.53;6.82;;;;;;;21.21;54.61;94782.97;5095171;28;20254;-71
2022/08/06 06:03:27;;;;;;;7.47;6.78;;;;;;;21.25;55.14;94772.47;5094994;28;20204;-71
2022/08/06 06:05:55;;;;;;;7.32;6.75;;;;;;;21.30;54.48;94783.97;5096010;28;20204;-71
2022/08/06 06:08:24;;;;;;;8.00;6.10;;;;;;;21.34;54.19;94781.13;5095439;28;20239;-71
2022/08/06 06:10:52;;;;;;;6.43;5.93;;;;;;;21.36;54.15;94782.28;5096104;28;20200;-71
2022/08/06 06:13:21;;;;;;;7.43;6.72;;;;;;;21.40;54.07;94771.00;5095373;28;20207;-71
2022/08/06 06:15:50;;;;;;;7.10;6.50;;;;;;;21.43;53.74;94778.56;5095604;28;20200;-71
2022/08/06 06:18:27;;;;;;;7.28;6.45;;;;;;;21.45;54.10;94776.09;5095189;28;20207;-71
2022/08/06 06:21:13;;;;;;;7.30;6.72;;;;;;;21.50;54.36;94772.81;5095102;28;20203;-71
2022/08/06 06:23:47;;;;;;;7.72;6.88;;;;;;;21.56;54.02;94771.06;5095706;28;20184;-71
2022/08/06 06:26:22;;;;;;;7.70;7.10;;;;;;;21.62;54.01;94772.16;5095523;28;20187;-71
2022/08/06 06:29:03;;;;;;;8.02;7.38;;;;;;;21.70;53.50;94774.81;5094757;28;20592;-71
2022/08/06 06:31:36;;;;;;;7.47;6.78;;;;;;;21.76;53.90;94773.88;5095203;28;20204;-71
2022/08/06 06:34:09;;;;;;;7.57;6.80;;;;;;;21.81;53.58;94767.75;5095578;28;20220;-71
2022/08/06 06:36:42;;;;;;;8.55;7.75;;;;;;;21.86;53.40;94760.84;5095373;28;20180;-71
2022/08/06 06:39:23;;;;;;;7.95;7.35;;;;;;;21.87;53.90;94765.25;5094121;28;20600;-71
2022/08/06 06:41:53;;;;;;;8.35;7.63;;;;;;;21.91;53.38;94765.94;5094388;28;20196;-71
2022/08/06 06:44:25;;;;;;;7.60;6.90;;;;;;;21.96;53.45;94761.84;5095036;28;20607;-71
2022/08/06 06:46:57;;;;;;;7.90;7.25;;;;;;;22.00;53.36;94754.91;5095311;28;20541;-71
2022/08/06 06:49:30;;;;;;;8.57;7.75;;;;;;;22.05;53.24;94748.00;5095203;28;20708;-71
2022/08/06 06:52:05;;;;;;;8.63;7.82;;;;;;;22.12;52.92;94750.66;5094852;28;20189;-71
2022/08/06 06:54:40;;;;;;;8.18;7.35;;;;;;;22.16;52.95;94754.19;5096917;28;20183;-71
2022/08/06 06:57:08;;;;;;;8.43;7.63;;;;;;;22.20;53.36;94752.09;5099160;28;20243;-71
2022/08/06 06:59:38;;;;;;;8.68;7.97;;;;;;;22.27;53.02;94751.16;5098363;28;20200;-71
2022/08/06 07:02:09;;;;;;;8.88;8.07;;;;;;;22.33;52.86;94743.75;5099289;28;20184;-71
2022/08/06 07:04:38;;;;;;;8.52;7.70;;;;;;;22.36;52.86;94745.69;5098162;28;20600;-71
2022/08/06 07:07:06;;;;;;;8.23;7.45;;;;;;;22.39;52.97;94736.41;5098074;28;20204;-70
2022/08/06 07:09:39;;;;;;;8.18;7.53;;;;;;;22.41;52.79;94744.41;5098054;28;20659;-71
2022/08/06 07:12:08;;;;;;;12.88;11.63;;;;;;;22.46;52.45;94743.88;5098340;28;20200;-71
2022/08/06 07:14:37;;;;;;;14.95;13.45;;;;;;;22.52;52.62;94740.09;5098017;28;20290;-71
2022/08/06 07:17:08;;;;;;;9.80;8.85;;;;;;;22.57;52.48;94735.97;5098238;28;20203;-71
2022/08/06 07:19:36;;;;;;;9.18;8.40;;;;;;;22.61;52.28;94739.50;5098827;28;20212;-71
2022/08/06 07:22:05;;;;;;;8.18;7.47;;;;;;;22.64;52.34;94737.81;5097670;28;20200;-71
2022/08/06 07:24:35;;;;;;;8.10;7.30;;;;;;;22.72;51.91;94733.59;5098811;28;20246;-71
2022/08/06 07:27:04;;;;;;;7.97;7.28;;;;;;;22.76;51.97;94734.28;5098475;28;20283;-71
2022/08/06 07:29:32;;;;;;;8.68;7.88;;;;;;;22.78;52.49;94724.19;5097736;28;20216;-71
2022/08/06 07:32:01;;;;;;;9.57;8.77;;;;;;;22.82;52.35;94730.53;5097567;28;20203;-71
2022/08/06 07:34:30;;;;;;;7.80;7.10;;;;;;;22.96;52.26;94739.84;5098018;28;20196;-71
2022/08/06 07:36:58;;;;;;;7.32;6.72;;;;;;;23.07;51.54;94723.50;5098654;28;20216;-71
2022/08/06 07:39:29;;;;;;;7.40;6.70;;;;;;;23.11;51.86;94726.22;5097539;28;20196;-70
2022/08/06 07:42:01;;;;;;;8.35;7.55;;;;;;;23.13;51.67;94721.72;5097399;28;20204;-71
2022/08/06 07:44:30;;;;;;;7.35;6.75;;;;;;;23.16;51.90;94718.00;5097722;28;20189;-71
2022/08/06 07:47:00;;;;;;;9.65;7.57;;;;;;;23.20;52.31;94717.91;5098252;28;20184;-71
2022/08/06 07:49:37;;;;;;;7.32;6.50;;;;;;;23.23;51.80;94717.81;5097106;28;20212;-70
2022/08/06 07:52:08;;;;;;;7.55;6.88;;;;;;;23.27;51.32;94721.31;5097336;28;20219;-70
2022/08/06 07:54:38;;;;;;;9.27;8.48;;;;;;;23.31;51.21;94715.59;5098309;28;20192;-71
2022/08/06 07:57:07;;;;;;;8.55;7.85;;;;;;;23.41;51.19;94719.34;5098048;28;20675;-71
2022/08/06 07:59:36;;;;;;;6.80;6.30;;;;;;;23.46;51.31;94716.78;5098193;28;20189;-70
2022/08/06 08:02:04;;;;;;;7.28;6.63;;;;;;;23.54;50.94;94712.53;5097885;28;20517;-70
2022/08/06 08:07:20;;;;;;;7.63;6.97;;;;;;;23.80;50.11;94709.81;5098074;28;20184;-70
2022/08/06 08:09:49;;;;;;;7.38;6.70;;;;;;;23.85;49.79;94714.09;5097782;28;20239;-71
2022/08/06 08:12:20;;;;;;;7.35;6.75;;;;;;;23.94;50.33;94712.19;5097053;28;20196;-71
2022/08/06 08:14:48;;;;;;;7.03;6.30;;;;;;;24.18;49.31;94707.03;5096739;28;20295;-71
2022/08/06 08:17:16;;;;;;;6.82;6.05;;;;;;;24.33;48.94;94706.56;5096787;28;20199;-70
2022/08/06 08:19:47;;;;;;;6.55;5.82;;;;;;;24.38;48.44;94709.63;5097801;28;20200;-70
2022/08/06 08:22:17;;;;;;;6.22;5.82;;;;;;;24.51;47.37;94704.03;5097625;28;20184;-70
2022/08/06 08:24:50;;;;;;;9.50;7.05;;;;;;;24.54;48.10;94705.91;5097782;28;20192;-71
2022/08/06 08:27:22;;;;;;;9.90;7.03;;;;;;;24.71;47.44;94706.56;5097541;28;20196;-71
2022/08/06 08:29:48;;;;;;;9.98;7.60;;;;;;;24.73;47.46;94699.25;5097420;28;20249;-71
2022/08/06 08:32:17;;;;;;;6.60;6.00;;;;;;;25.01;47.66;94705.13;5097646;28;20184;-70
2022/08/06 08:34:46;;;;;;;6.97;6.30;;;;;;;25.15;45.59;94699.03;5096859;28;20193;-71
2022/08/06 08:37:14;;;;;;;6.90;6.40;;;;;;;25.18;45.47;94702.97;5097258;28;20226;-70
2022/08/06 08:39:44;;;;;;;6.85;6.30;;;;;;;25.14;45.24;94700.28;5079773;28;20204;-71
2022/08/06 08:42:17;;;;;;;7.72;7.13;;;;;;;25.13;46.10;94698.72;5096850;28;20207;-71
2022/08/06 08:44:49;;;;;;;7.72;6.90;;;;;;;25.25;46.63;94693.47;5097407;28;20197;-71
2022/08/06 08:47:19;;;;;;;7.25;6.05;;;;;;;25.38;46.86;94691.38;5096521;28;20227;-71
2022/08/06 08:49:47;;;;;;;6.82;6.28;;;;;;;25.48;44.92;94689.41;5096155;28;20212;-71
2022/08/06 08:52:20;;;;;;;7.60;6.72;;;;;;;25.49;44.78;94699.44;5096768;28;20207;-71
2022/08/06 08:54:52;;;;;;;7.38;6.07;;;;;;;25.66;45.44;94698.00;5096786;28;20632;-71
2022/08/06 08:57:22;;;;;;;5.70;5.20;;;;;;;25.81;43.63;94693.44;5097046;28;20199;-70
2022/08/06 08:59:51;;;;;;;6.00;5.20;;;;;;;26.02;43.46;94696.69;5096095;28;20192;-71
2022/08/06 09:02:20;;;;;;;5.97;5.45;;;;;;;26.17;42.22;94689.22;5096381;28;20258;-71
2022/08/06 09:04:48;;;;;;;5.45;4.95;;;;;;;26.45;41.95;94687.31;5096945;28;20269;-71
2022/08/06 09:07:16;;;;;;;6.72;5.15;;;;;;;26.54;41.23;94684.53;5096958;28;20211;-71
2022/08/06 09:09:45;;;;;;;6.45;5.82;;;;;;;26.74;39.77;94686.16;5095805;28;20216;-71
2022/08/06 09:12:12;;;;;;;7.38;6.10;;;;;;;26.89;40.73;94684.31;5096470;28;20264;-70
2022/08/06 09:14:43;;;;;;;6.47;5.82;;;;;;;27.08;39.75;94679.44;5097001;28;20201;-71
2022/08/06 09:17:12;;;;;;;8.98;6.45;;;;;;;27.22;40.36;94683.75;5095867;28;20242;-70
2022/08/06 09:19:41;;;;;;;6.50;5.88;;;;;;;27.43;39.63;94682.03;5096615;28;20191;-71
2022/08/06 09:22:12;;;;;;;7.18;6.45;;;;;;;27.55;38.61;94684.69;5096257;28;20633;-71
2022/08/06 09:24:40;;;;;;;6.25;5.75;;;;;;;27.57;38.73;94684.22;5096569;28;20201;-70
2022/08/06 09:27:08;;;;;;;7.85;6.60;;;;;;;27.68;38.76;94676.03;5095797;28;20491;-71
2022/08/06 09:29:37;;;;;;;10.90;7.20;;;;;;;27.65;39.21;94668.47;5096472;28;20204;-71
2022/08/06 09:32:06;;;;;;;5.68;5.18;;;;;;;27.67;38.85;94673.66;5096117;28;20192;-71
2022/08/06 09:34:38;;;;;;;12.90;6.95;;;;;;;27.71;39.04;94669.41;5096483;28;20201;-71
2022/08/06 09:37:07;;;;;;;5.63;5.13;;;;;;;27.77;37.95;94667.53;5096029;28;20181;-71
2022/08/06 09:39:39;;;;;;;10.05;6.88;;;;;;;27.80;39.28;94665.78;5095021;28;20193;-71
2022/08/06 09:42:07;;;;;;;12.88;7.45;;;;;;;27.82;37.92;94675.41;5096080;28;20180;-71
2022/08/06 09:44:36;;;;;;;14.15;8.88;;;;;;;27.82;38.68;94669.72;5096035;28;20180;-71
2022/08/06 09:47:06;;;;;;;21.60;11.50;;;;;;;27.81;39.05;94673.03;5095269;28;20201;-71
2022/08/06 09:49:45;;;;;;;11.88;7.45;;;;;;;28.06;37.25;94663.34;5095917;28;20220;-71
2022/08/06 09:52:15;;;;;;;30.77;13.85;;;;;;;28.07;39.52;94674.22;5096160;28;20204;-71
2022/08/06 09:54:42;;;;;;;17.55;9.25;;;;;;;27.98;37.69;94667.78;5096036;28;20189;-71
2022/08/06 09:57:13;;;;;;;10.00;7.53;;;;;;;27.82;37.91;94669.72;5095445;28;20232;-71
2022/08/06 09:59:45;;;;;;;16.35;11.23;;;;;;;27.73;38.65;94674.59;5095779;28;20219;-71
2022/08/06 10:02:15;;;;;;;11.30;8.30;;;;;;;27.68;37.28;94664.69;5095315;28;20230;-71
2022/08/06 10:04:43;;;;;;;17.92;8.40;;;;;;;27.60;38.24;94654.94;5094930;28;20188;-71
2022/08/06 10:07:15;;;;;;;15.25;8.90;;;;;;;27.65;39.52;94662.03;5095986;28;20207;-71
2022/08/06 10:09:55;;;;;;;16.63;8.15;;;;;;;27.83;36.85;94657.13;5095440;28;20204;-71
2022/08/06 10:12:24;;;;;;;16.17;8.70;;;;;;;27.89;37.68;94650.81;5094399;28;20651;-71
2022/08/06 10:14:53;;;;;;;13.85;8.98;;;;;;;27.87;38.21;94650.50;5095784;28;20193;-71
2022/08/06 10:17:25;;;;;;;22.83;10.77;;;;;;;27.98;37.82;94656.47;5094915;28;20192;-71
2022/08/06 10:20:07;;;;;;;15.30;9.07;;;;;;;27.80;38.60;94655.25;5095742;28;20189;-71
2022/08/06 10:22:37;;;;;;;20.70;9.95;;;;;;;27.67;38.35;94653.81;5094718;28;20199;-71
2022/08/06 10:25:06;;;;;;;18.15;10.50;;;;;;;27.57;38.72;94653.84;5094370;28;20195;-71
2022/08/06 10:27:35;;;;;;;13.43;9.45;;;;;;;27.51;39.52;94650.06;5095157;28;20604;-71
2022/08/06 10:30:05;;;;;;;7.38;6.57;;;;;;;27.45;38.94;94649.16;5094416;28;20273;-71
2022/08/06 10:32:37;;;;;;;14.82;9.50;;;;;;;27.51;40.17;94661.41;5094277;28;20208;-71
2022/08/06 10:35:08;;;;;;;8.13;6.82;;;;;;;27.94;40.04;94648.13;5095086;28;20191;-71
2022/08/06 10:37:41;;;;;;;7.47;5.60;;;;;;;28.22;37.49;94650.88;5094331;28;20200;-71
2022/08/06 10:40:10;;;;;;;9.80;7.47;;;;;;;28.35;37.76;94640.09;5095055;28;20184;-71
2022/08/06 10:42:39;;;;;;;7.95;6.93;;;;;;;28.52;35.33;94643.34;5094706;28;20199;-71
2022/08/06 10:45:07;;;;;;;6.75;6.10;;;;;;;28.59;35.55;94645.06;5094429;28;20188;-71
2022/08/06 10:47:34;;;;;;;13.88;7.63;;;;;;;28.46;36.31;94637.53;5094633;28;20192;-71
2022/08/06 10:50:03;;;;;;;11.82;8.90;;;;;;;28.28;37.46;94643.28;5094802;28;20212;-71
2022/08/06 10:52:30;;;;;;;10.13;7.25;;;;;;;28.16;35.82;94636.56;5095003;28;20290;-70
2022/08/06 10:55:00;;;;;;;7.88;6.88;;;;;;;28.03;37.04;94641.63;5094618;28;20192;-71
2022/08/06 10:57:29;;;;;;;11.18;7.47;;;;;;;27.87;37.16;94634.28;5094331;28;20188;-71
2022/08/06 10:59:56;;;;;;;9.35;7.50;;;;;;;27.76;37.75;94643.28;5094230;28;20192;-71
2022/08/06 11:02:31;;;;;;;10.80;7.07;;;;;;;27.67;38.34;94648.16;5094872;28;20189;-70
2022/08/06 11:05:01;;;;;;;6.57;5.80;;;;;;;27.62;38.21;94641.09;5094456;28;20201;-71
2022/08/06 11:07:52;;;;;;;7.70;6.00;;;;;;;27.65;38.57;94636.53;5094338;28;20196;-71
2022/08/06 11:10:38;;;;;;;6.15;5.55;;;;;;;27.57;38.66;94634.00;5095190;28;20205;-71
2022/08/06 11:13:21;;;;;;;8.52;6.53;;;;;;;27.76;40.97;94634.78;5094206;28;20205;-71
2022/08/06 11:15:49;;;;;;;7.00;5.70;;;;;;;28.03;37.58;94631.09;5094195;28;20193;-71
2022/08/06 11:18:20;;;;;;;6.55;5.93;;;;;;;28.38;37.30;94624.97;5094964;28;20203;-71
2022/08/06 11:20:49;;;;;;;5.93;5.43;;;;;;;28.64;36.92;94622.47;5095113;28;20181;-71
2022/08/06 11:23:25;;;;;;;7.70;5.55;;;;;;;28.73;35.86;94616.75;5094984;28;20188;-71
2022/08/06 11:25:57;;;;;;;6.90;6.18;;;;;;;28.97;34.80;94615.94;5094005;28;20215;-71
2022/08/06 11:28:57;;;;;;;5.65;5.15;;;;;;;29.16;34.09;94619.44;5093680;28;20507;-71
2022/08/06 11:31:37;;;;;;;12.93;9.98;;;;;;;28.99;34.67;94619.91;5089883;28;20212;-71
2022/08/06 11:34:05;;;;;;;7.25;6.50;;;;;;;28.96;34.32;94609.47;5094939;28;20193;-71
2022/08/06 11:36:52;;;;;;;5.72;5.22;;;;;;;28.88;35.41;94618.88;5094163;28;20201;-71
2022/08/06 11:39:21;;;;;;;6.00;5.50;;;;;;;28.95;35.59;94609.97;5094499;28;20208;-71
2022/08/06 11:42:03;;;;;;;5.63;5.13;;;;;;;29.13;34.79;94620.44;5097118;28;20224;-71
2022/08/06 11:44:32;;;;;;;6.25;5.65;;;;;;;29.29;35.60;94610.69;5098738;28;20253;-71
2022/08/06 11:47:16;;;;;;;7.40;5.40;;;;;;;29.44;34.85;94605.81;5098548;28;20242;-71
2022/08/06 11:49:45;;;;;;;6.15;5.55;;;;;;;29.51;34.70;94611.88;5098255;28;20257;-71
2022/08/06 11:52:45;;;;;;;6.47;5.85;;;;;;;29.50;34.05;94610.31;5098426;28;20197;-71